Decoded Metar for LFOB (BEAUVAIS in FRANCE) (IATA:BVA) | Meteo·Mobile Aviation Weather
aviador You're here:

LFOB Decoded Metar

BEAUVAIS in FRANCE
Report Time2019-07-21 17:30:00
UTC Time2019-07-21 17:36:51
Flight Rules vfr VFR
Wind270° at 06 kt
W.Decomp.*RWY 30: 5.2 kt HW 2.9 kt LCW
RWY 22: 3.8 kt HW 4.7 kt RCW
Visibility9999 m
Phenomena:N/A
Clouds:N/A
Expected CloudBase > 5,600 ft AGL from Temp-Dew spread
CeilingNone
Temp25°C (ISA +11)
Dew Point11°C (42% RH)
AAT23.2°C
QNH1022 hPa
Density Alt1,483 ft
Elevation364 ft
Report Wrong Elevation
Raw Report
METAR LFOB 211730Z AUTO 27006KT 210V300 CAVOK 25/11 Q1022 NOSIG=

Extra information for LFOB:More info

Metar Taf Metar & Taf Last 4 Metars F.Rules Stats Wind Profile Meteogram Temp Stats Airport Information Weather charts Add Link Nearby VenuesMetar ALERT Operation Metar Decoded Social comments